sensor_id;sensor_type;location;lat;lon;timestamp;pressure;altitude;pressure_sealevel;temperature;humidity
31011;BME280;26395;53.412;19.598;2023-11-21T00:00:51;99831.17;;;1.81;92.43
31011;BME280;26395;53.412;19.598;2023-11-21T00:16:28;99849.54;;;1.73;90.25
31011;BME280;26395;53.412;19.598;2023-11-21T00:32:05;99878.02;;;1.76;90.29
31011;BME280;26395;53.412;19.598;2023-11-21T00:47:42;99876.71;;;1.65;88.44
31011;BME280;26395;53.412;19.598;2023-11-21T01:03:19;99888.85;;;1.76;87.98
31011;BME280;26395;53.412;19.598;2023-11-21T01:18:56;99891.71;;;2.13;85.43
31011;BME280;26395;53.412;19.598;2023-11-21T01:34:34;99907.25;;;2.39;83.29
31011;BME280;26395;53.412;19.598;2023-11-21T01:50:16;99915.39;;;2.44;82.94
31011;BME280;26395;53.412;19.598;2023-11-21T02:05:53;99931.98;;;2.38;82.05
31011;BME280;26395;53.412;19.598;2023-11-21T02:21:30;99939.19;;;2.39;81.05
31011;BME280;26395;53.412;19.598;2023-11-21T02:37:10;99943.36;;;2.33;79.78
31011;BME280;26395;53.412;19.598;2023-11-21T02:52:49;99944.05;;;2.36;79.08
31011;BME280;26395;53.412;19.598;2023-11-21T03:08:26;99957.23;;;2.29;78.12
31011;BME280;26395;53.412;19.598;2023-11-21T03:24:04;99974.50;;;2.40;77.58
31011;BME280;26395;53.412;19.598;2023-11-21T03:39:40;99977.69;;;2.39;77.50
31011;BME280;26395;53.412;19.598;2023-11-21T03:55:18;99979.99;;;2.35;77.03
31011;BME280;26395;53.412;19.598;2023-11-21T04:10:58;99991.95;;;2.43;76.81
31011;BME280;26395;53.412;19.598;2023-11-21T04:26:35;99999.48;;;2.47;76.92
31011;BME280;26395;53.412;19.598;2023-11-21T04:42:12;100010.68;;;2.45;77.02
31011;BME280;26395;53.412;19.598;2023-11-21T04:57:49;100024.02;;;2.50;75.94
31011;BME280;26395;53.412;19.598;2023-11-21T05:13:26;100039.27;;;2.49;75.88
31011;BME280;26395;53.412;19.598;2023-11-21T05:29:06;100064.50;;;2.45;75.30
31011;BME280;26395;53.412;19.598;2023-11-21T05:44:44;100086.75;;;2.51;75.03
31011;BME280;26395;53.412;19.598;2023-11-21T06:00:21;100109.58;;;2.35;74.53
31011;BME280;26395;53.412;19.598;2023-11-21T06:15:58;100136.56;;;1.97;76.48
31011;BME280;26395;53.412;19.598;2023-11-21T06:31:37;100154.98;;;2.04;76.90
31011;BME280;26395;53.412;19.598;2023-11-21T06:47:15;100186.36;;;2.04;76.54
31011;BME280;26395;53.412;19.598;2023-11-21T07:02:55;100203.79;;;2.13;77.30
31011;BME280;26395;53.412;19.598;2023-11-21T07:18:32;100214.24;;;2.09;77.06
31011;BME280;26395;53.412;19.598;2023-11-21T07:34:09;100225.80;;;2.22;76.67
31011;BME280;26395;53.412;19.598;2023-11-21T07:49:46;100239.70;;;2.36;76.90
31011;BME280;26395;53.412;19.598;2023-11-21T08:05:25;100247.93;;;2.56;77.12
31011;BME280;26395;53.412;19.598;2023-11-21T08:21:02;100258.77;;;2.79;77.21
31011;BME280;26395;53.412;19.598;2023-11-21T08:40:39;100272.54;;;2.83;76.17
31011;BME280;26395;53.412;19.598;2023-11-21T08:56:16;100269.36;;;2.99;75.79
31011;BME280;26395;53.412;19.598;2023-11-21T09:11:56;100278.39;;;3.21;75.04
31011;BME280;26395;53.412;19.598;2023-11-21T09:27:34;100286.34;;;3.02;74.50
31011;BME280;26395;53.412;19.598;2023-11-21T09:43:16;100297.96;;;2.91;73.90
31011;BME280;26395;53.412;19.598;2023-11-21T09:58:56;100316.66;;;3.19;74.39
31011;BME280;26395;53.412;19.598;2023-11-21T10:14:40;100323.39;;;3.22;73.94
31011;BME280;26395;53.412;19.598;2023-11-21T10:30:22;100329.13;;;3.22;73.51
31011;BME280;26395;53.412;19.598;2023-11-21T10:58:29;100333.52;;;3.36;73.73
31011;BME280;26395;53.412;19.598;2023-11-21T11:14:10;100338.91;;;3.32;72.56
31011;BME280;26395;53.412;19.598;2023-11-21T11:30:01;100348.81;;;3.16;72.13
31011;BME280;26395;53.412;19.598;2023-11-21T11:45:43;100353.48;;;3.25;72.58
31011;BME280;26395;53.412;19.598;2023-11-21T12:01:22;100367.41;;;3.48;72.80
31011;BME280;26395;53.412;19.598;2023-11-21T12:17:00;100382.58;;;3.27;71.82
31011;BME280;26395;53.412;19.598;2023-11-21T12:32:47;100395.09;;;3.26;71.93
31011;BME280;26395;53.412;19.598;2023-11-21T12:48:24;100418.80;;;3.35;72.18
31011;BME280;26395;53.412;19.598;2023-11-21T13:04:01;100433.09;;;3.17;71.53
31011;BME280;26395;53.412;19.598;2023-11-21T13:19:39;100456.83;;;2.83;71.81
31011;BME280;26395;53.412;19.598;2023-11-21T13:35:19;100476.94;;;2.62;71.26
31011;BME280;26395;53.412;19.598;2023-11-21T13:51:05;100493.13;;;2.80;69.97
31011;BME280;26395;53.412;19.598;2023-11-21T14:06:49;100512.34;;;2.58;69.03
31011;BME280;26395;53.412;19.598;2023-11-21T14:22:32;100531.88;;;2.37;68.77
31011;BME280;26395;53.412;19.598;2023-11-21T14:38:09;100559.17;;;2.19;68.76
31011;BME280;26395;53.412;19.598;2023-11-21T14:53:46;100586.95;;;2.05;68.85
31011;BME280;26395;53.412;19.598;2023-11-21T15:09:23;100604.30;;;1.99;68.29
31011;BME280;26395;53.412;19.598;2023-11-21T15:25:03;100629.98;;;2.10;68.95
31011;BME280;26395;53.412;19.598;2023-11-21T15:48:36;100641.69;;;2.18;69.44
31011;BME280;26395;53.412;19.598;2023-11-21T16:04:19;100653.80;;;1.92;68.62
31011;BME280;26395;53.412;19.598;2023-11-21T16:19:59;100681.08;;;1.80;68.39
31011;BME280;26395;53.412;19.598;2023-11-21T16:35:39;100702.63;;;1.68;68.22
31011;BME280;26395;53.412;19.598;2023-11-21T16:51:18;100713.84;;;1.68;67.68
31011;BME280;26395;53.412;19.598;2023-11-21T17:06:55;100719.42;;;1.75;67.39
31011;BME280;26395;53.412;19.598;2023-11-21T17:22:34;100734.39;;;1.76;66.94
31011;BME280;26395;53.412;19.598;2023-11-21T17:38:12;100750.80;;;1.86;66.85
31011;BME280;26395;53.412;19.598;2023-11-21T17:53:49;100777.38;;;1.90;66.51
31011;BME280;26395;53.412;19.598;2023-11-21T18:09:31;100790.70;;;1.93;66.06
31011;BME280;26395;53.412;19.598;2023-11-21T18:25:08;100802.60;;;2.02;66.04
31011;BME280;26395;53.412;19.598;2023-11-21T18:40:47;100826.95;;;1.85;65.47
31011;BME280;26395;53.412;19.598;2023-11-21T18:56:24;100862.27;;;1.65;65.47
31011;BME280;26395;53.412;19.598;2023-11-21T19:12:05;100904.50;;;1.44;65.81
31011;BME280;26395;53.412;19.598;2023-11-21T19:27:43;100933.59;;;1.18;65.49
31011;BME280;26395;53.412;19.598;2023-11-21T19:43:21;100967.85;;;1.05;65.95
31011;BME280;26395;53.412;19.598;2023-11-21T19:58:58;100995.90;;;0.93;65.70
31011;BME280;26395;53.412;19.598;2023-11-21T20:14:37;101018.25;;;0.74;65.46
31011;BME280;26395;53.412;19.598;2023-11-21T20:30:14;101044.05;;;0.65;65.83
31011;BME280;26395;53.412;19.598;2023-11-21T20:45:52;101063.77;;;0.52;65.59
31011;BME280;26395;53.412;19.598;2023-11-21T21:01:29;101083.30;;;0.44;66.15
31011;BME280;26395;53.412;19.598;2023-11-21T21:17:06;101100.59;;;0.31;66.71
31011;BME280;26395;53.412;19.598;2023-11-21T21:32:43;101119.52;;;0.26;66.69
31011;BME280;26395;53.412;19.598;2023-11-21T21:48:22;101125.05;;;0.08;67.47
31011;BME280;26395;53.412;19.598;2023-11-21T22:03:58;101149.31;;;0.02;68.25
31011;BME280;26395;53.412;19.598;2023-11-21T22:19:36;101165.87;;;-0.17;68.58
31011;BME280;26395;53.412;19.598;2023-11-21T22:35:13;101199.11;;;-0.25;69.60
31011;BME280;26395;53.412;19.598;2023-11-21T22:50:50;101206.40;;;-0.40;70.20
31011;BME280;26395;53.412;19.598;2023-11-21T23:06:27;101222.48;;;-0.43;70.63
31011;BME280;26395;53.412;19.598;2023-11-21T23:22:04;101223.53;;;-0.57;71.14
31011;BME280;26395;53.412;19.598;2023-11-21T23:37:41;101223.20;;;-0.51;71.39
31011;BME280;26395;53.412;19.598;2023-11-21T23:53:18;101230.30;;;-0.53;71.41
